createdAt,value
2023-02-01T00:00:11.220Z,100.00
2023-02-01T00:03:15.906Z,100.00
2023-02-01T00:06:18.130Z,100.00
2023-02-01T00:09:20.640Z,100.00
2023-02-01T00:12:22.841Z,100.00
2023-02-01T00:15:25.260Z,100.00
2023-02-01T00:18:27.433Z,100.00
2023-02-01T00:21:31.121Z,100.00
2023-02-01T00:24:33.282Z,100.00
2023-02-01T00:27:35.742Z,100.00
2023-02-01T00:30:39.116Z,100.00
2023-02-01T00:33:41.804Z,100.00
2023-02-01T00:36:44.869Z,100.00
2023-02-01T00:39:47.333Z,100.00
2023-02-01T00:42:49.471Z,100.00
2023-02-01T00:45:51.959Z,100.00
2023-02-01T00:48:54.845Z,100.00
2023-02-01T00:51:57.327Z,100.00
2023-02-01T00:54:59.664Z,99.29
2023-02-01T00:58:02.243Z,98.80
2023-02-01T01:01:19.824Z,98.89
2023-02-01T01:04:22.276Z,98.57
2023-02-01T01:07:25.064Z,98.30
2023-02-01T01:10:27.499Z,97.44
2023-02-01T01:13:29.666Z,98.05
2023-02-01T01:16:33.277Z,96.58
2023-02-01T01:19:35.492Z,96.98
2023-02-01T01:22:37.916Z,98.46
2023-02-01T01:25:40.883Z,96.59
2023-02-01T01:28:43.598Z,97.25
2023-02-01T01:31:45.846Z,99.54
2023-02-01T01:34:48.331Z,99.35
2023-02-01T01:37:50.533Z,99.85
2023-02-01T01:40:53.070Z,100.00
2023-02-01T01:44:03.913Z,100.00
2023-02-01T01:47:06.601Z,96.76
2023-02-01T01:50:12.256Z,95.60
2023-02-01T01:53:20.028Z,96.35
2023-02-01T01:56:23.239Z,96.25
2023-02-01T01:59:26.006Z,96.40
2023-02-01T02:02:28.334Z,97.69
2023-02-01T02:05:31.490Z,98.73
2023-02-01T02:08:33.664Z,98.23
2023-02-01T02:11:36.267Z,97.83
2023-02-01T02:14:38.957Z,98.33
2023-02-01T02:17:56.374Z,98.20
2023-02-01T02:21:18.814Z,98.63
2023-02-01T02:24:49.280Z,97.48
2023-02-01T02:28:13.124Z,97.05
2023-02-01T02:31:24.309Z,96.43
2023-02-01T02:34:41.308Z,96.31
2023-02-01T02:37:53.472Z,96.21
2023-02-01T02:41:34.476Z,96.76
2023-02-01T02:45:12.895Z,97.46
2023-02-01T02:48:51.118Z,97.53
2023-02-01T02:52:24.401Z,97.17
2023-02-01T02:55:29.126Z,97.48
2023-02-01T02:58:50.438Z,97.70
2023-02-01T03:02:12.261Z,98.65
2023-02-01T03:08:30.709Z,98.94
2023-02-01T03:11:52.091Z,97.52
2023-02-01T03:15:02.297Z,96.51
2023-02-01T03:18:12.792Z,96.13
2023-02-01T03:21:39.516Z,97.21
2023-02-01T03:24:48.986Z,95.92
2023-02-01T03:28:03.637Z,95.48
2023-02-01T03:31:06.478Z,94.41
2023-02-01T03:34:09.162Z,94.39
2023-02-01T03:37:17.171Z,93.83
2023-02-01T03:40:20.553Z,92.28
2023-02-01T03:43:26.245Z,88.98
2023-02-01T03:46:36.582Z,88.44
2023-02-01T03:49:45.892Z,86.78
2023-02-01T03:52:54.235Z,87.03
2023-02-01T03:55:58.020Z,86.15
2023-02-01T03:59:00.996Z,86.08
2023-02-01T04:02:03.588Z,85.96
2023-02-01T04:05:06.252Z,84.34
2023-02-01T04:08:09.015Z,84.08
2023-02-01T04:11:11.465Z,84.20
2023-02-01T04:14:13.636Z,84.20
2023-02-01T04:17:16.156Z,84.23
2023-02-01T04:20:18.472Z,84.58
2023-02-01T04:23:21.576Z,85.02
2023-02-01T04:26:23.777Z,83.86
2023-02-01T04:29:26.326Z,83.89
2023-02-01T04:32:28.482Z,83.99
2023-02-01T04:35:31.039Z,84.12
2023-02-01T04:38:33.278Z,83.47
2023-02-01T04:41:35.882Z,83.59
2023-02-01T04:44:40.458Z,84.06
2023-02-01T04:47:42.899Z,84.73
2023-02-01T04:50:48.402Z,84.25
2023-02-01T04:53:50.942Z,83.96
2023-02-01T04:56:53.110Z,84.80
2023-02-01T04:59:55.680Z,84.17
2023-02-01T05:02:57.937Z,84.28
2023-02-01T05:06:01.199Z,84.68
2023-02-01T05:09:03.401Z,84.48
2023-02-01T05:12:24.672Z,84.35
2023-02-01T05:15:26.949Z,83.86
2023-02-01T05:18:29.728Z,82.76
2023-02-01T05:21:32.110Z,81.71
2023-02-01T05:24:35.060Z,81.54
2023-02-01T05:27:37.441Z,81.96
2023-02-01T05:30:42.356Z,81.34
2023-02-01T05:33:44.803Z,81.57
2023-02-01T05:36:47.711Z,81.82
2023-02-01T05:39:50.281Z,82.29
2023-02-01T05:42:52.910Z,82.34
2023-02-01T05:45:55.443Z,82.47
2023-02-01T05:48:57.954Z,82.62
2023-02-01T05:52:00.960Z,82.84
2023-02-01T05:55:04.069Z,83.82
2023-02-01T05:58:06.818Z,82.69
2023-02-01T06:01:09.293Z,82.54
2023-02-01T06:04:11.851Z,82.63
2023-02-01T06:07:16.415Z,81.54
2023-02-01T06:10:19.295Z,81.49
2023-02-01T06:13:22.281Z,81.47
2023-02-01T06:16:24.822Z,81.66
2023-02-01T06:19:26.988Z,81.74
2023-02-01T06:22:29.421Z,81.65
2023-02-01T06:25:31.709Z,82.70
2023-02-01T06:28:35.102Z,81.97
2023-02-01T06:31:37.299Z,82.46
2023-02-01T06:34:40.525Z,82.05
2023-02-01T06:37:43.523Z,81.61
2023-02-01T06:40:53.637Z,81.56
2023-02-01T06:43:56.063Z,81.20
2023-02-01T06:46:58.910Z,79.89
2023-02-01T06:50:01.158Z,80.28
2023-02-01T06:53:03.700Z,79.61
2023-02-01T06:56:06.338Z,78.95
2023-02-01T06:59:09.567Z,79.06
2023-02-01T07:02:14.588Z,78.64
2023-02-01T07:05:17.625Z,78.48
2023-02-01T07:08:19.833Z,79.25
2023-02-01T07:11:22.808Z,77.76
2023-02-01T07:14:25.188Z,77.62
2023-02-01T07:17:29.947Z,78.27
2023-02-01T07:20:32.187Z,77.75
2023-02-01T07:23:35.267Z,77.88
2023-02-01T07:26:41.382Z,77.00
2023-02-01T07:29:44.275Z,76.19
2023-02-01T07:32:46.657Z,75.39
2023-02-01T07:35:50.844Z,74.78
2023-02-01T07:38:56.512Z,74.11
2023-02-01T07:42:02.671Z,73.15
2023-02-01T07:45:21.016Z,72.12
2023-02-01T07:48:26.490Z,71.71
2023-02-01T07:51:29.288Z,72.43
2023-02-01T07:54:31.837Z,71.02
2023-02-01T07:57:34.415Z,71.40
2023-02-01T08:00:56.168Z,69.40
2023-02-01T08:04:01.858Z,69.13
2023-02-01T08:07:04.106Z,68.72
2023-02-01T08:10:11.646Z,68.00
2023-02-01T08:13:14.088Z,67.36
2023-02-01T08:16:19.003Z,67.57
2023-02-01T08:19:21.249Z,66.29
2023-02-01T08:22:23.832Z,67.62
2023-02-01T08:25:26.105Z,67.39
2023-02-01T08:28:28.573Z,67.89
2023-02-01T08:31:31.623Z,67.73
2023-02-01T08:34:35.872Z,68.19
2023-02-01T08:37:39.221Z,68.59
2023-02-01T08:40:42.776Z,70.34
2023-02-01T08:43:45.262Z,71.74
2023-02-01T08:46:47.759Z,72.33
2023-02-01T08:49:50.051Z,72.92
2023-02-01T08:52:53.935Z,73.75
2023-02-01T08:55:56.296Z,74.36
2023-02-01T08:58:58.753Z,75.17
2023-02-01T09:02:01.064Z,73.81
2023-02-01T09:05:04.947Z,73.05
2023-02-01T09:08:07.408Z,72.07
2023-02-01T09:11:22.761Z,71.64
2023-02-01T09:14:24.988Z,70.99
2023-02-01T09:20:31.616Z,71.97
2023-02-01T09:23:35.367Z,70.73
2023-02-01T09:26:38.105Z,70.96
2023-02-01T09:29:40.759Z,68.83
2023-02-01T09:32:42.912Z,67.50
2023-02-01T09:35:45.361Z,67.32
2023-02-01T09:38:52.887Z,67.20
2023-02-01T09:42:15.333Z,66.76
2023-02-01T09:45:32.802Z,67.37
2023-02-01T09:48:41.704Z,67.44
2023-02-01T09:51:48.011Z,66.61
2023-02-01T09:55:03.772Z,65.92
2023-02-01T09:58:30.628Z,66.32
2023-02-01T10:01:33.139Z,67.20
2023-02-01T10:04:35.659Z,63.23
2023-02-01T10:07:51.948Z,59.04
2023-02-01T10:11:05.522Z,55.50
2023-02-01T10:14:20.397Z,55.51
2023-02-01T10:17:44.823Z,57.54
2023-02-01T10:21:02.162Z,60.17
2023-02-01T10:24:22.810Z,61.08
2023-02-01T10:27:34.867Z,61.99
2023-02-01T10:30:45.313Z,64.19
2023-02-01T10:33:52.118Z,66.77
2023-02-01T10:36:58.527Z,67.86
2023-02-01T10:40:24.804Z,63.79
2023-02-01T10:43:27.520Z,55.00
2023-02-01T10:46:31.964Z,48.96
2023-02-01T10:50:17.512Z,46.87
2023-02-01T10:53:25.682Z,50.92
2023-02-01T10:56:29.779Z,50.36
2023-02-01T10:59:34.495Z,52.46
2023-02-01T11:02:37.330Z,56.39
2023-02-01T11:05:47.453Z,59.69
2023-02-01T11:08:52.806Z,62.20
2023-02-01T11:11:58.618Z,63.24
2023-02-01T11:15:20.864Z,64.04
2023-02-01T11:18:29.307Z,61.81
2023-02-01T11:21:33.747Z,61.13
2023-02-01T11:24:39.307Z,63.36
2023-02-01T11:27:53.235Z,66.52
2023-02-01T11:31:01.711Z,69.11
2023-02-01T11:34:16.882Z,73.31
2023-02-01T11:37:29.719Z,77.64
2023-02-01T11:40:37.227Z,77.97
2023-02-01T11:43:57.880Z,79.99
2023-02-01T11:47:27.193Z,80.46
2023-02-01T11:50:37.222Z,84.37
2023-02-01T11:54:17.608Z,86.22
2023-02-01T11:57:58.443Z,89.37
2023-02-01T12:01:21.204Z,91.04
2023-02-01T12:04:58.919Z,92.42
2023-02-01T12:08:15.785Z,92.43
2023-02-01T12:12:00.017Z,93.83
2023-02-01T12:15:11.226Z,96.48
2023-02-01T12:18:41.674Z,92.92
2023-02-01T12:21:51.080Z,95.82
2023-02-01T12:25:01.653Z,97.11
2023-02-01T12:28:22.719Z,100.00
2023-02-01T12:32:00.790Z,100.00
2023-02-01T12:35:10.506Z,100.00
2023-02-01T12:38:25.415Z,100.00
2023-02-01T12:41:49.939Z,100.00
2023-02-01T12:45:17.161Z,100.00
2023-02-01T12:48:37.719Z,100.00
2023-02-01T12:51:44.376Z,100.00
2023-02-01T12:54:55.619Z,100.00
2023-02-01T12:58:31.628Z,100.00
2023-02-01T13:01:40.086Z,100.00
2023-02-01T13:05:12.600Z,100.00
2023-02-01T13:08:24.186Z,100.00
2023-02-01T13:11:34.952Z,100.00
2023-02-01T13:14:58.612Z,100.00
2023-02-01T13:18:06.043Z,100.00
2023-02-01T13:21:16.071Z,100.00
2023-02-01T13:24:36.549Z,100.00
2023-02-01T13:27:39.867Z,100.00
2023-02-01T13:30:45.358Z,100.00
2023-02-01T13:34:18.730Z,100.00
2023-02-01T13:37:55.126Z,100.00
2023-02-01T13:41:25.767Z,100.00
2023-02-01T13:44:43.929Z,100.00
2023-02-01T13:47:50.643Z,100.00
2023-02-01T13:50:59.014Z,100.00
2023-02-01T13:54:01.701Z,100.00
2023-02-01T13:57:06.271Z,100.00
2023-02-01T14:00:35.149Z,100.00
2023-02-01T14:03:47.362Z,100.00
2023-02-01T14:06:53.890Z,100.00
2023-02-01T14:09:56.303Z,100.00
2023-02-01T14:13:13.134Z,100.00
2023-02-01T14:16:18.499Z,100.00
2023-02-01T14:19:32.690Z,100.00
2023-02-01T14:22:35.744Z,100.00
2023-02-01T14:25:38.759Z,100.00
2023-02-01T14:28:47.329Z,100.00
2023-02-01T14:32:15.840Z,100.00
2023-02-01T14:35:28.416Z,100.00
2023-02-01T14:38:33.250Z,100.00
2023-02-01T14:41:36.559Z,100.00
2023-02-01T14:44:38.893Z,100.00
2023-02-01T14:47:41.771Z,100.00
2023-02-01T14:50:48.954Z,100.00
2023-02-01T14:53:52.149Z,100.00
2023-02-01T14:56:55.466Z,100.00
2023-02-01T15:00:07.004Z,100.00
2023-02-01T15:03:44.288Z,100.00
2023-02-01T15:07:02.734Z,100.00
2023-02-01T15:10:06.947Z,100.00
2023-02-01T15:13:19.539Z,100.00
2023-02-01T15:16:24.211Z,100.00
2023-02-01T15:19:29.526Z,100.00
2023-02-01T15:22:32.677Z,100.00
2023-02-01T15:25:39.188Z,100.00
2023-02-01T15:28:41.811Z,100.00
2023-02-01T15:31:52.613Z,100.00
2023-02-01T15:34:54.849Z,100.00
2023-02-01T15:38:22.896Z,100.00
2023-02-01T15:41:31.345Z,100.00
2023-02-01T15:44:42.719Z,100.00
2023-02-01T15:47:49.154Z,100.00
2023-02-01T15:50:53.440Z,100.00
2023-02-01T15:54:11.038Z,100.00
2023-02-01T15:57:23.303Z,100.00
2023-02-01T16:00:28.560Z,100.00
2023-02-01T16:03:40.323Z,100.00
2023-02-01T16:06:49.054Z,98.30
2023-02-01T16:09:57.013Z,97.18
2023-02-01T16:13:01.231Z,98.06
2023-02-01T16:16:08.833Z,97.01
2023-02-01T16:19:11.482Z,97.41
2023-02-01T16:22:14.609Z,99.02
2023-02-01T16:25:17.066Z,98.58
2023-02-01T16:28:19.599Z,100.00
2023-02-01T16:31:28.352Z,100.00
2023-02-01T16:34:31.586Z,98.53
2023-02-01T16:37:37.196Z,99.33
2023-02-01T16:40:44.283Z,100.00
2023-02-01T16:43:50.337Z,98.93
2023-02-01T16:46:53.335Z,99.68
2023-02-01T16:49:55.562Z,98.60
2023-02-01T16:52:58.430Z,99.86
2023-02-01T16:56:00.671Z,100.00
2023-02-01T16:59:04.119Z,100.00
2023-02-01T17:02:07.132Z,100.00
2023-02-01T17:05:10.488Z,100.00
2023-02-01T17:08:16.758Z,100.00
2023-02-01T17:11:19.661Z,99.89
2023-02-01T17:14:22.842Z,99.82
2023-02-01T17:17:38.821Z,100.00
2023-02-01T17:20:42.662Z,100.00
2023-02-01T17:23:46.783Z,99.40
2023-02-01T17:26:51.539Z,99.13
2023-02-01T17:29:57.157Z,97.75
2023-02-01T17:33:03.637Z,98.61
2023-02-01T17:36:15.664Z,97.56
2023-02-01T17:39:37.434Z,96.21
2023-02-01T17:42:40.144Z,96.96
2023-02-01T17:45:52.546Z,96.60
2023-02-01T17:48:55.756Z,96.83
2023-02-01T17:51:58.635Z,96.90
2023-02-01T17:55:01.281Z,96.02
2023-02-01T17:58:05.843Z,94.35
2023-02-01T18:01:13.816Z,94.48
2023-02-01T18:04:18.912Z,93.83
2023-02-01T18:07:21.465Z,93.27
2023-02-01T18:10:24.287Z,93.56
2023-02-01T18:13:31.259Z,93.01
2023-02-01T18:16:34.826Z,93.09
2023-02-01T18:19:37.000Z,92.09
2023-02-01T18:22:39.554Z,91.63
2023-02-01T18:25:42.141Z,90.82
2023-02-01T18:28:45.329Z,89.19
2023-02-01T18:31:52.023Z,89.67
2023-02-01T18:34:54.671Z,90.59
2023-02-01T18:37:57.816Z,90.53
2023-02-01T18:41:01.212Z,89.23
2023-02-01T18:44:04.473Z,88.06
2023-02-01T18:47:07.230Z,87.83
2023-02-01T18:50:10.644Z,87.71
2023-02-01T18:53:20.004Z,87.96
2023-02-01T18:56:22.244Z,88.06
2023-02-01T18:59:25.295Z,88.35
2023-02-01T19:02:27.774Z,87.88
2023-02-01T19:05:31.497Z,87.25
2023-02-01T19:08:33.975Z,86.87
2023-02-01T19:11:37.400Z,86.92
2023-02-01T19:14:39.628Z,87.11
2023-02-01T19:17:47.592Z,87.18
2023-02-01T19:20:54.939Z,86.12
2023-02-01T19:23:58.388Z,85.27
2023-02-01T19:27:00.682Z,84.22
2023-02-01T19:30:04.370Z,85.64
2023-02-01T19:33:06.770Z,84.09
2023-02-01T19:36:10.908Z,83.91
2023-02-01T19:39:13.480Z,82.74
2023-02-01T19:42:16.808Z,83.90
2023-02-01T19:45:19.507Z,82.16
2023-02-01T19:48:22.408Z,81.93
2023-02-01T19:51:25.675Z,81.90
2023-02-01T19:54:28.237Z,81.21
2023-02-01T19:57:31.018Z,79.65
2023-02-01T20:00:33.235Z,79.16
2023-02-01T20:03:35.728Z,79.01
2023-02-01T20:06:40.394Z,78.86
2023-02-01T20:09:42.944Z,79.19
2023-02-01T20:12:48.452Z,79.67
2023-02-01T20:15:58.396Z,80.06
2023-02-01T20:19:00.725Z,79.89
2023-02-01T20:22:03.324Z,80.03
2023-02-01T20:25:06.382Z,80.69
2023-02-01T20:28:09.965Z,80.99
2023-02-01T20:31:12.268Z,80.14
2023-02-01T20:34:14.976Z,81.38
2023-02-01T20:37:17.313Z,81.85
2023-02-01T20:40:20.136Z,82.11
2023-02-01T20:43:22.286Z,82.85
2023-02-01T20:46:24.872Z,84.78
2023-02-01T20:49:27.110Z,84.91
2023-02-01T20:52:29.660Z,85.21
2023-02-01T20:55:32.208Z,85.38
2023-02-01T20:58:35.246Z,86.74
2023-02-01T21:01:38.059Z,87.15
2023-02-01T21:04:40.641Z,89.21
2023-02-01T21:07:43.761Z,91.31
2023-02-01T21:11:01.979Z,92.68
2023-02-01T21:14:05.297Z,93.34
2023-02-01T21:17:07.944Z,93.86
2023-02-01T21:20:10.981Z,94.66
2023-02-01T21:23:14.880Z,94.30
2023-02-01T21:26:18.362Z,94.49
2023-02-01T21:29:21.428Z,95.26
2023-02-01T21:32:23.568Z,96.16
2023-02-01T21:35:26.647Z,96.59
2023-02-01T21:38:29.437Z,96.41
2023-02-01T21:41:52.861Z,97.46
2023-02-01T21:44:55.219Z,98.82
2023-02-01T21:47:57.779Z,98.93
2023-02-01T21:51:00.073Z,99.83
2023-02-01T21:54:02.692Z,100.00
2023-02-01T21:57:09.034Z,100.00
2023-02-01T22:00:13.476Z,100.00
2023-02-01T22:03:16.646Z,100.00
2023-02-01T22:06:24.375Z,100.00
2023-02-01T22:09:26.892Z,100.00
2023-02-01T22:12:29.450Z,100.00
2023-02-01T22:15:32.463Z,100.00
2023-02-01T22:18:34.652Z,100.00
2023-02-01T22:21:38.888Z,100.00
2023-02-01T22:24:41.094Z,100.00
2023-02-01T22:28:31.192Z,100.00
2023-02-01T22:31:07.887Z,100.00
2023-02-01T22:34:11.779Z,100.00
2023-02-01T22:37:14.244Z,100.00
2023-02-01T22:40:17.081Z,100.00
2023-02-01T22:43:19.218Z,100.00
2023-02-01T22:46:25.382Z,100.00
2023-02-01T22:49:27.690Z,100.00
2023-02-01T22:52:30.756Z,100.00
2023-02-01T22:55:34.251Z,100.00
2023-02-01T22:58:36.914Z,100.00
2023-02-01T23:01:39.100Z,100.00
2023-02-01T23:04:42.049Z,100.00
2023-02-01T23:07:48.880Z,100.00
2023-02-01T23:10:58.032Z,100.00
2023-02-01T23:14:00.385Z,100.00
2023-02-01T23:17:02.928Z,100.00
2023-02-01T23:20:07.278Z,100.00
2023-02-01T23:23:09.873Z,100.00
2023-02-01T23:26:12.116Z,100.00
2023-02-01T23:29:18.621Z,100.00
2023-02-01T23:32:21.040Z,100.00
2023-02-01T23:35:23.971Z,100.00
2023-02-01T23:38:27.486Z,100.00
2023-02-01T23:41:31.826Z,100.00
2023-02-01T23:44:33.998Z,100.00
2023-02-01T23:47:36.837Z,100.00
2023-02-01T23:50:39.010Z,100.00
2023-02-01T23:53:41.877Z,100.00
2023-02-01T23:56:45.877Z,100.00
2023-02-01T23:59:48.751Z,100.00
